Flight Track Log - Related Links

Times and Time Zones

All times are in EDT time to prevent confusion due to time zone crossing. See the ASQ5678 flight status page for this flight to view local times or setup timezone preferences in your user account.

Time Position Orientation Groundspeed Altitude Reporting Facility
EDT Latitude Longitude Course Direction KTS MPH feet Rate Location/Type
Fri 08:28:22 PM 40.6333 -74.1833 258° West 184 212 2,100  Level New York TRACON
Fri 08:29:22 PM 40.6167 -74.2667 255° West 234 269 4,000 2,000 Climbing New York TRACON
Fri 08:30:22 PM 40.6167 -74.3500 270° West 266 306 6,100 2,165 Climbing New York TRACON
Fri 08:31:00 PM 40.6833 -74.7021 270° West  Level FlightAware Approximate
Fri 08:32:00 PM 40.6834 -74.8360 270° West  Level FlightAware Approximate
Fri 08:32:36 PM 40.6067 -74.5706 267° West 269 310 11,000  Level New York Center
Fri 08:33:00 PM 40.6828 -74.9697 258° West  Level FlightAware Approximate
Fri 08:33:37 PM 40.6219 -74.6808 280° West 288 331 11,700  Level New York Center
Fri 08:34:37 PM 40.6431 -74.7969 284° West 323 372 13,200 1,289 Climbing New York Center
Fri 08:35:38 PM 40.6594 -74.9211 280° West 335 386 14,300 1,122 Climbing New York Center
Fri 08:36:40 PM 40.6781 -75.0453 281° West 340 391 15,500 1,160 Climbing New York Center
Fri 08:37:37 PM 40.6469 -75.1528 249° West 340 391 16,600 1,068 Climbing New York Center
Fri 08:38:38 PM 40.5900 -75.2803 240° Southwest 351 404 17,600 878 Climbing New York Center
Fri 08:39:40 PM 40.5375 -75.3969 239° Southwest 371 427 18,400 807 Climbing New York Center
Fri 08:40:37 PM 40.4919 -75.5003 240° Southwest 371 427 19,200 915 Climbing New York Center
Fri 08:41:38 PM 40.4372 -75.6167 238° Southwest 371 427 20,200 1,261 Climbing New York Center
Fri 08:42:36 PM 40.3842 -75.7356 240° Southwest 371 427 21,700 1,537 Climbing New York Center
Fri 08:43:39 PM 40.3317 -75.8461 238° Southwest 371 427 23,300 1,317 Climbing New York Center
Fri 08:44:39 PM 40.2744 -75.9617 237° Southwest 376 433 24,400 1,068 Climbing New York Center
Fri 08:45:37 PM 40.2214 -76.0747 238° Southwest 376 433 25,400 958 Climbing New York Center
Fri 08:46:38 PM 40.1703 -76.1903 240° Southwest 376 433 26,300 942 Climbing New York Center
Fri 08:47:38 PM 40.1108 -76.3078 237° Southwest 376 433 27,300 950 Climbing New York Center
Fri 08:48:38 PM 40.0550 -76.4253 238° Southwest 376 433 28,200 1,140 Climbing New York Center
Fri 08:49:39 PM 40.0033 -76.5458 241° Southwest 376 433 29,600 1,373 Climbing New York Center
Fri 08:50:36 PM 39.9611 -76.6861 249° West 376 433 30,900 1,119 Climbing New York Center
Fri 08:51:37 PM 39.9214 -76.8097 247° West 376 433 31,800 793 Climbing New York Center
Fri 08:52:37 PM 39.8814 -76.9389 248° West 382 440 32,500 650 Climbing New York Center
Fri 08:53:37 PM 39.8389 -77.0733 248° West 388 447 33,100 657 Climbing New York Center
Fri 08:54:54 PM 39.7836 -77.2439 247° West 431 496 34,000 391 Climbing Washington Center
Fri 08:55:55 PM 39.7378 -77.3886 248° West 431 496 34,000  Level Washington Center
Fri 08:56:52 PM 39.6897 -77.5358 247° West 436 502 34,000  Level Washington Center
Fri 08:57:53 PM 39.6433 -77.6881 248° West 447 514 34,000 -393 Level Washington Center
Fri 08:58:54 PM 39.5928 -77.8400 247° West 452 520 33,200 -908 Descending Washington Center
Fri 08:59:52 PM 39.5439 -77.9947 248° West 452 520 32,200 -610 Descending Washington Center
Fri 09:00:52 PM 39.4928 -78.1436 246° West 457 526 32,000 -99 Descending Washington Center
Fri 09:01:53 PM 39.4436 -78.2950 247° West 457 526 32,000  Level Washington Center
Fri 09:02:52 PM 39.3967 -78.4356 247° West 462 532 32,000  Level Washington Center
Fri 09:03:53 PM 39.3472 -78.5894 247° West 468 539 32,000  Level Washington Center
Fri 09:04:53 PM 39.2975 -78.7403 247° West 468 539 32,000  Level Washington Center
Fri 09:05:54 PM 39.2456 -78.8908 246° West 468 539 32,000  Level Washington Center
Fri 09:06:52 PM 39.1953 -79.0439 247° West 468 539 32,000  Level Washington Center
Fri 09:07:53 PM 39.1431 -79.1939 246° West 468 539 32,000  Level Washington Center
Fri 09:08:54 PM 39.0925 -79.3467 247° West 473 544 32,000  Level Washington Center
Fri 09:09:52 PM 39.0419 -79.4964 247° West 473 544 32,000  Level Washington Center
Fri 09:10:53 PM 38.9889 -79.6511 246° West 473 544 32,000  Level Washington Center
Fri 09:11:52 PM 38.9333 -79.8056 245° Southwest 473 544 32,000  Level Washington Center
Fri 09:12:42 PM 38.8817 -79.9422 244° Southwest 469 540 32,000  Level Indianapolis Center
Fri 09:13:43 PM 38.8367 -80.0708 246° West 469 540 32,000  Level Indianapolis Center
Fri 09:14:44 PM 38.8144 -80.2708 262° West 481 554 32,000  Level Indianapolis Center
Fri 09:15:46 PM 38.8083 -80.4431 267° West 483 556 32,000  Level Indianapolis Center
Fri 09:16:47 PM 38.7883 -80.6125 261° West 483 556 32,000  Level Indianapolis Center
Fri 09:17:48 PM 38.7658 -80.7819 260° West 484 557 32,000  Level Indianapolis Center
Fri 09:18:50 PM 38.7406 -80.9522 259° West 485 558 32,000  Level Indianapolis Center
Fri 09:19:51 PM 38.7175 -81.1233 260° West 487 560 32,000  Level Indianapolis Center
Fri 09:20:52 PM 38.6931 -81.2950 260° West 488 562 32,000  Level Indianapolis Center
Fri 09:21:54 PM 38.6667 -81.4847 260° West 491 565 32,000  Level Indianapolis Center
Fri 09:22:55 PM 38.6417 -81.6578 260° West 494 568 32,000  Level Indianapolis Center
Fri 09:23:56 PM 38.6172 -81.8281 260° West 494 568 32,000 -195 Level Indianapolis Center
Fri 09:24:58 PM 38.5925 -81.9989 260° West 490 564 31,600 -1,415 Descending Indianapolis Center
Fri 09:25:59 PM 38.5683 -82.1636 259° West 475 547 29,100 -2,459 Descending Indianapolis Center
Fri 09:27:00 PM 38.5439 -82.3194 259° West 450 518 26,600 -2,634 Descending Indianapolis Center
Fri 09:28:02 PM 38.5169 -82.5011 259° West 446 513 23,700 -2,244 Descending Indianapolis Center
Fri 09:29:03 PM 38.4931 -82.6544 259° West 444 511 22,000 -836 Descending Indianapolis Center
Fri 09:30:04 PM 38.4953 -82.8078 271° West 436 502 22,000  Level Indianapolis Center
Fri 09:31:06 PM 38.5119 -82.9561 278° West 429 494 22,000 -98 Level Indianapolis Center
Fri 09:32:07 PM 38.5283 -83.1083 278° West 431 496 21,800 -443 Descending Indianapolis Center
Fri 09:33:08 PM 38.5658 -83.2511 289° West 425 489 21,100 -1,525 Descending Indianapolis Center
Fri 09:34:09 PM 38.6061 -83.3900 290° West 418 481 18,700 -2,293 Descending Indianapolis Center
Fri 09:35:11 PM 38.6453 -83.5286 290° West 416 479 16,400 -2,390 Descending Indianapolis Center
Fri 09:36:12 PM 38.6861 -83.6689 290° West 406 467 13,800 -2,754 Descending Indianapolis Center
Fri 09:37:13 PM 38.7214 -83.7914 290° West 371 427 10,800 -1,902 Descending Indianapolis Center
Fri 09:38:15 PM 38.7450 -83.9114 284° West 344 396 9,900 -439 Descending Indianapolis Center
Fri 09:39:16 PM 38.7667 -84.0269 284° West 334 384 9,900  Level Indianapolis Center
Fri 09:40:17 PM 38.7956 -84.1400 288° West 332 382 9,900 49 Level Indianapolis Center
Fri 09:41:18 PM 38.8378 -84.2597 294° West 360 414 10,000 49 Climbing Indianapolis Center
Fri 09:42:20 PM 38.8903 -84.3683 302° West 359 413 10,000 -390 Level Indianapolis Center
Fri 09:43:21 PM 38.9650 -84.4356 325° Northwest 321 369 9,200 -1,377 Descending Indianapolis Center
Fri 09:44:22 PM 39.0417 -84.5047 325° Northwest 286 329 7,200 -1,415 Descending Indianapolis Center
Fri 09:45:24 PM 39.0922 -84.5608 319° Northwest 245 282 6,300 -1,366 Descending Indianapolis Center
Fri 09:46:25 PM 39.1386 -84.5944 262° West 215 247 4,400 -1,869 Descending Indianapolis Center

Login

Don't have an account? Register now (free) for customized features, flight alerts, and more!